Gorman, Texas
Current Conditions -  °F | °C
As of 4:15 AM on Saturday 25 Oct 2014 (Local Time) from KMKN Reporting Station
Clear Clear  
Wind Chill: 68°   Ceiling: Unl
Heat Index: 68°   Visibility: 10mi
Dew Point: 59°   Wind: 10mph
Humidity: 74%   Direction: 210°SSW
Pressure: 30.12"   Gusts: NA
Location:  32.21°N, 98.67°W
Report Text: KMKN 250915Z AUTO 21009KT 10SM CLR 20/15 A3012 RMK AO2 T02000152
Loading
Personal Weather Stations






























Interactive Weather Map
Tropical Storm Tracking
New forecast layout! Learn more

10-Day Weather Forecast

Advertisements
Track Severe Weather on mobile